Toluca Jose Maria, Mexico

5:15 PM CDT on July 29, 2016 (GMT -0500)
Bosque Real | | Change Station

Elev 8212 ft 19.43 °N, 99.29 °W | Updated 10 minutes ago

Light Rain
Light Rain
71.1 °F
Feels Like 77 °F
N
3.7
Wind Variable Wind from East

Today
High -- | Low -- °F
--% Chance of Precip.
Yesterday
High -- | Low -- °F
Precip. -- in
Pressure 30.24 in
Visibility 7.0 miles
Clouds Mostly Cloudy 2000 ft
Mostly Cloudy 8000 ft
Overcast 20000 ft
Heat Index 77 °F
Dew Point 50 °F
Humidity 47%
Rainfall 0.13 in
Snow Depth Not available.
7:13 AM 8:15 PM
Waning Crescent, 18% visible
SPECI MMMX 292211Z 00000KT 7SM -RA BKN020CB BKN080 OVC200 22/08 A3024 NOSIG RMK 8/963 HZY TSE05
Pressure 30.24 in
Visibility 7.0 miles
Clouds Mostly Cloudy 2000 ft
Mostly Cloudy 8000 ft
Overcast 20000 ft
Heat Index 77 °F
Dew Point 50 °F
Humidity 47%
Rainfall 0.13 in
Snow Depth Not available.
7:13 AM 8:15 PM
Waning Crescent, 18% visible
SPECI MMMX 292211Z 00000KT 7SM -RA BKN020CB BKN080 OVC200 22/08 A3024 NOSIG RMK 8/963 HZY TSE05

10-Day Weather Forecast

No radar image for this location.
×

Almanac

Astronomy

Jul. 29, 2016 Rise Set
Actual Time
Civil Twilight
Nautical Twilight
Astronomical Twilight
Moon
Length of Visible Light
Length of Day
Tomorrow will be .
, % of the Moon is Illuminated

Today's Extremes

Country Highs Country Lows

Community

WunderPhotos

Upload Photos

1,928,429 photos uploaded!

WunderBlog® & News

Nearby

Air Quality

  Air Quality AQ Index Pollutant
Not available.

Snow Depth

Station Depth Elevation

Earthquake Activity

City Distance Mag. Time & Date
Minimum magnitude displayed is 2.5.

Coastal Water Temperatures

Place Temperature

Stations

Nearby Weather Stations

Station Location Temp. Windchill Dew Point Humidity Wind Precip. Elev Updated Type